sensor_id;sensor_type;location;lat;lon;timestamp;temperature;humidity
2463;DHT22;1243;54.298;10.172;2023-07-22T00:02:06;13.90;99.90
2463;DHT22;1243;54.298;10.172;2023-07-22T00:04:32;13.90;99.90
2463;DHT22;1243;54.298;10.172;2023-07-22T00:06:57;13.80;99.90
2463;DHT22;1243;54.298;10.172;2023-07-22T00:09:23;13.80;99.90
2463;DHT22;1243;54.298;10.172;2023-07-22T00:11:50;13.90;99.90
2463;DHT22;1243;54.298;10.172;2023-07-22T00:14:16;13.90;99.90
2463;DHT22;1243;54.298;10.172;2023-07-22T00:16:41;13.90;99.90
2463;DHT22;1243;54.298;10.172;2023-07-22T00:19:08;13.90;99.90
2463;DHT22;1243;54.298;10.172;2023-07-22T00:21:33;13.90;99.90
2463;DHT22;1243;54.298;10.172;2023-07-22T00:24:00;13.90;99.90
2463;DHT22;1243;54.298;10.172;2023-07-22T00:26:26;13.90;99.90
2463;DHT22;1243;54.298;10.172;2023-07-22T00:28:52;13.90;99.90
2463;DHT22;1243;54.298;10.172;2023-07-22T00:31:18;13.90;99.90
2463;DHT22;1243;54.298;10.172;2023-07-22T00:33:44;14.00;99.90
2463;DHT22;1243;54.298;10.172;2023-07-22T00:36:09;13.90;99.90
2463;DHT22;1243;54.298;10.172;2023-07-22T00:38:35;13.90;99.90
2463;DHT22;1243;54.298;10.172;2023-07-22T00:41:01;13.80;99.90
2463;DHT22;1243;54.298;10.172;2023-07-22T00:43:30;13.80;99.90
2463;DHT22;1243;54.298;10.172;2023-07-22T00:45:56;13.90;99.90
2463;DHT22;1243;54.298;10.172;2023-07-22T00:48:22;13.90;99.90
2463;DHT22;1243;54.298;10.172;2023-07-22T00:50:48;13.90;99.90
2463;DHT22;1243;54.298;10.172;2023-07-22T00:53:14;14.00;99.90
2463;DHT22;1243;54.298;10.172;2023-07-22T00:55:40;14.00;99.90
2463;DHT22;1243;54.298;10.172;2023-07-22T00:58:06;14.00;99.90
2463;DHT22;1243;54.298;10.172;2023-07-22T01:00:32;14.00;99.90
2463;DHT22;1243;54.298;10.172;2023-07-22T01:02:58;14.00;99.90
2463;DHT22;1243;54.298;10.172;2023-07-22T01:05:26;13.90;99.90
2463;DHT22;1243;54.298;10.172;2023-07-22T01:07:53;13.90;99.90
2463;DHT22;1243;54.298;10.172;2023-07-22T01:10:19;13.80;99.90
2463;DHT22;1243;54.298;10.172;2023-07-22T01:12:45;13.80;99.90
2463;DHT22;1243;54.298;10.172;2023-07-22T01:15:11;13.80;99.90
2463;DHT22;1243;54.298;10.172;2023-07-22T01:17:38;13.70;99.90
2463;DHT22;1243;54.298;10.172;2023-07-22T01:20:05;13.80;99.90
2463;DHT22;1243;54.298;10.172;2023-07-22T01:22:32;13.70;99.90
2463;DHT22;1243;54.298;10.172;2023-07-22T01:24:59;13.70;99.90
2463;DHT22;1243;54.298;10.172;2023-07-22T01:27:25;13.60;99.90
2463;DHT22;1243;54.298;10.172;2023-07-22T01:29:51;13.60;99.90
2463;DHT22;1243;54.298;10.172;2023-07-22T01:32:17;13.60;99.90
2463;DHT22;1243;54.298;10.172;2023-07-22T01:34:43;13.70;99.90
2463;DHT22;1243;54.298;10.172;2023-07-22T01:37:09;13.70;99.90
2463;DHT22;1243;54.298;10.172;2023-07-22T01:39:37;13.60;99.90
2463;DHT22;1243;54.298;10.172;2023-07-22T01:42:03;13.60;99.90
2463;DHT22;1243;54.298;10.172;2023-07-22T01:44:29;13.60;99.90
2463;DHT22;1243;54.298;10.172;2023-07-22T01:46:55;13.60;99.90
2463;DHT22;1243;54.298;10.172;2023-07-22T01:49:21;13.50;99.90
2463;DHT22;1243;54.298;10.172;2023-07-22T01:51:49;13.60;99.90
2463;DHT22;1243;54.298;10.172;2023-07-22T01:54:15;13.60;99.90
2463;DHT22;1243;54.298;10.172;2023-07-22T01:56:41;13.50;99.90
2463;DHT22;1243;54.298;10.172;2023-07-22T01:59:07;13.60;99.90
2463;DHT22;1243;54.298;10.172;2023-07-22T02:01:32;13.60;99.90
2463;DHT22;1243;54.298;10.172;2023-07-22T02:03:58;13.60;99.90
2463;DHT22;1243;54.298;10.172;2023-07-22T02:06:24;13.50;99.90
2463;DHT22;1243;54.298;10.172;2023-07-22T02:08:50;13.60;99.90
2463;DHT22;1243;54.298;10.172;2023-07-22T02:11:16;13.50;99.90
2463;DHT22;1243;54.298;10.172;2023-07-22T02:13:43;13.50;99.90
2463;DHT22;1243;54.298;10.172;2023-07-22T02:16:08;13.60;99.90
2463;DHT22;1243;54.298;10.172;2023-07-22T02:18:37;13.60;99.90
2463;DHT22;1243;54.298;10.172;2023-07-22T02:21:02;13.60;99.90
2463;DHT22;1243;54.298;10.172;2023-07-22T02:23:28;13.60;99.90
2463;DHT22;1243;54.298;10.172;2023-07-22T02:25:54;13.60;99.90
2463;DHT22;1243;54.298;10.172;2023-07-22T02:28:21;13.60;99.90
2463;DHT22;1243;54.298;10.172;2023-07-22T02:30:51;13.60;99.90
2463;DHT22;1243;54.298;10.172;2023-07-22T02:33:20;13.60;99.90
2463;DHT22;1243;54.298;10.172;2023-07-22T02:35:47;13.60;99.90
2463;DHT22;1243;54.298;10.172;2023-07-22T02:38:13;13.50;99.90
2463;DHT22;1243;54.298;10.172;2023-07-22T02:40:42;13.50;99.90
2463;DHT22;1243;54.298;10.172;2023-07-22T02:43:07;13.50;99.90
2463;DHT22;1243;54.298;10.172;2023-07-22T02:45:34;13.50;99.90
2463;DHT22;1243;54.298;10.172;2023-07-22T02:48:00;13.50;99.90
2463;DHT22;1243;54.298;10.172;2023-07-22T02:50:26;13.50;99.90
2463;DHT22;1243;54.298;10.172;2023-07-22T02:52:52;13.50;99.90
2463;DHT22;1243;54.298;10.172;2023-07-22T02:55:18;13.60;99.90
2463;DHT22;1243;54.298;10.172;2023-07-22T02:57:47;13.50;99.90
2463;DHT22;1243;54.298;10.172;2023-07-22T03:00:15;13.40;99.90
2463;DHT22;1243;54.298;10.172;2023-07-22T03:02:51;13.40;99.90
2463;DHT22;1243;54.298;10.172;2023-07-22T03:05:18;13.40;99.90
2463;DHT22;1243;54.298;10.172;2023-07-22T03:07:44;13.50;99.90
2463;DHT22;1243;54.298;10.172;2023-07-22T03:10:10;13.50;99.90
2463;DHT22;1243;54.298;10.172;2023-07-22T03:12:36;13.40;99.90
2463;DHT22;1243;54.298;10.172;2023-07-22T03:15:02;13.30;99.90
2463;DHT22;1243;54.298;10.172;2023-07-22T03:17:29;13.40;99.90
2463;DHT22;1243;54.298;10.172;2023-07-22T03:19:55;13.40;99.90
2463;DHT22;1243;54.298;10.172;2023-07-22T03:22:21;13.40;99.90
2463;DHT22;1243;54.298;10.172;2023-07-22T03:24:46;13.40;99.90
2463;DHT22;1243;54.298;10.172;2023-07-22T03:27:13;13.40;99.90
2463;DHT22;1243;54.298;10.172;2023-07-22T03:29:40;13.30;99.90
2463;DHT22;1243;54.298;10.172;2023-07-22T03:32:06;13.20;99.90
2463;DHT22;1243;54.298;10.172;2023-07-22T03:34:32;13.20;99.90
2463;DHT22;1243;54.298;10.172;2023-07-22T03:36:58;13.10;99.90
2463;DHT22;1243;54.298;10.172;2023-07-22T03:39:24;13.10;99.90
2463;DHT22;1243;54.298;10.172;2023-07-22T03:41:50;13.10;99.90
2463;DHT22;1243;54.298;10.172;2023-07-22T03:44:15;13.00;99.90
2463;DHT22;1243;54.298;10.172;2023-07-22T03:46:41;13.00;99.90
2463;DHT22;1243;54.298;10.172;2023-07-22T03:49:07;13.10;99.90
2463;DHT22;1243;54.298;10.172;2023-07-22T03:51:33;13.20;99.90
2463;DHT22;1243;54.298;10.172;2023-07-22T03:53:59;13.20;99.90
2463;DHT22;1243;54.298;10.172;2023-07-22T03:56:25;13.20;99.90
2463;DHT22;1243;54.298;10.172;2023-07-22T03:58:51;13.20;99.90
2463;DHT22;1243;54.298;10.172;2023-07-22T04:01:17;13.20;99.90
2463;DHT22;1243;54.298;10.172;2023-07-22T04:03:43;13.20;99.90
2463;DHT22;1243;54.298;10.172;2023-07-22T04:06:09;13.30;99.90
2463;DHT22;1243;54.298;10.172;2023-07-22T04:08:35;13.40;99.90
2463;DHT22;1243;54.298;10.172;2023-07-22T04:11:00;13.40;99.90
2463;DHT22;1243;54.298;10.172;2023-07-22T04:13:27;13.40;99.90
2463;DHT22;1243;54.298;10.172;2023-07-22T04:15:53;13.50;99.90
2463;DHT22;1243;54.298;10.172;2023-07-22T04:18:20;13.40;99.90
2463;DHT22;1243;54.298;10.172;2023-07-22T04:20:46;13.40;99.90
2463;DHT22;1243;54.298;10.172;2023-07-22T04:23:13;13.40;99.90
2463;DHT22;1243;54.298;10.172;2023-07-22T04:25:43;13.40;99.90
2463;DHT22;1243;54.298;10.172;2023-07-22T04:28:09;13.30;99.90
2463;DHT22;1243;54.298;10.172;2023-07-22T04:30:36;13.30;99.90
2463;DHT22;1243;54.298;10.172;2023-07-22T04:33:02;13.20;99.90
2463;DHT22;1243;54.298;10.172;2023-07-22T04:35:31;13.20;99.90
2463;DHT22;1243;54.298;10.172;2023-07-22T04:37:57;13.20;99.90
2463;DHT22;1243;54.298;10.172;2023-07-22T04:40:23;13.20;99.90
2463;DHT22;1243;54.298;10.172;2023-07-22T04:42:51;13.30;99.90
2463;DHT22;1243;54.298;10.172;2023-07-22T04:45:17;13.30;99.90
2463;DHT22;1243;54.298;10.172;2023-07-22T04:47:45;13.30;99.90
2463;DHT22;1243;54.298;10.172;2023-07-22T04:50:13;13.30;99.90
2463;DHT22;1243;54.298;10.172;2023-07-22T04:52:41;13.20;99.90
2463;DHT22;1243;54.298;10.172;2023-07-22T04:55:07;13.10;99.90
2463;DHT22;1243;54.298;10.172;2023-07-22T04:57:37;13.10;99.90
2463;DHT22;1243;54.298;10.172;2023-07-22T05:00:04;13.10;99.90
2463;DHT22;1243;54.298;10.172;2023-07-22T05:02:30;13.10;99.90
2463;DHT22;1243;54.298;10.172;2023-07-22T05:04:56;13.20;99.90
2463;DHT22;1243;54.298;10.172;2023-07-22T05:07:22;13.20;99.90
2463;DHT22;1243;54.298;10.172;2023-07-22T05:09:48;13.30;99.90
2463;DHT22;1243;54.298;10.172;2023-07-22T05:12:14;13.40;99.90
2463;DHT22;1243;54.298;10.172;2023-07-22T05:14:40;13.50;99.90
2463;DHT22;1243;54.298;10.172;2023-07-22T05:17:06;13.50;99.90
2463;DHT22;1243;54.298;10.172;2023-07-22T05:19:31;13.50;99.90
2463;DHT22;1243;54.298;10.172;2023-07-22T05:21:57;13.50;99.90
2463;DHT22;1243;54.298;10.172;2023-07-22T05:24:23;13.60;99.90
2463;DHT22;1243;54.298;10.172;2023-07-22T05:26:48;13.50;99.90
2463;DHT22;1243;54.298;10.172;2023-07-22T05:29:14;13.40;99.90
2463;DHT22;1243;54.298;10.172;2023-07-22T05:31:41;13.40;99.90
2463;DHT22;1243;54.298;10.172;2023-07-22T05:34:06;13.40;99.90
2463;DHT22;1243;54.298;10.172;2023-07-22T05:36:32;13.50;99.90
2463;DHT22;1243;54.298;10.172;2023-07-22T05:38:58;13.60;99.90
2463;DHT22;1243;54.298;10.172;2023-07-22T05:41:25;13.70;1.00
2463;DHT22;1243;54.298;10.172;2023-07-22T05:43:51;13.70;1.00
2463;DHT22;1243;54.298;10.172;2023-07-22T05:46:17;13.70;1.00
2463;DHT22;1243;54.298;10.172;2023-07-22T05:48:42;13.70;1.00
2463;DHT22;1243;54.298;10.172;2023-07-22T05:51:09;13.70;99.90
2463;DHT22;1243;54.298;10.172;2023-07-22T05:53:35;13.70;1.00
2463;DHT22;1243;54.298;10.172;2023-07-22T05:56:00;13.80;1.00
2463;DHT22;1243;54.298;10.172;2023-07-22T05:58:26;13.80;1.00
2463;DHT22;1243;54.298;10.172;2023-07-22T06:00:54;13.70;99.90
2463;DHT22;1243;54.298;10.172;2023-07-22T06:03:20;13.80;99.90
2463;DHT22;1243;54.298;10.172;2023-07-22T06:05:46;13.80;99.90
2463;DHT22;1243;54.298;10.172;2023-07-22T06:08:12;13.90;99.90
2463;DHT22;1243;54.298;10.172;2023-07-22T06:10:40;14.00;99.90
2463;DHT22;1243;54.298;10.172;2023-07-22T06:13:06;14.10;99.90
2463;DHT22;1243;54.298;10.172;2023-07-22T06:15:32;14.20;99.90
2463;DHT22;1243;54.298;10.172;2023-07-22T06:17:58;14.20;99.90
2463;DHT22;1243;54.298;10.172;2023-07-22T06:20:24;14.20;99.90
2463;DHT22;1243;54.298;10.172;2023-07-22T06:22:50;14.30;99.90
2463;DHT22;1243;54.298;10.172;2023-07-22T06:25:16;14.40;99.90
2463;DHT22;1243;54.298;10.172;2023-07-22T06:27:42;14.50;99.90
2463;DHT22;1243;54.298;10.172;2023-07-22T06:30:08;14.60;99.90
2463;DHT22;1243;54.298;10.172;2023-07-22T06:32:36;14.80;99.90
2463;DHT22;1243;54.298;10.172;2023-07-22T06:35:02;14.90;99.90
2463;DHT22;1243;54.298;10.172;2023-07-22T06:37:28;14.90;99.90
2463;DHT22;1243;54.298;10.172;2023-07-22T06:39:54;14.90;99.90
2463;DHT22;1243;54.298;10.172;2023-07-22T06:42:20;14.80;99.90
2463;DHT22;1243;54.298;10.172;2023-07-22T06:44:45;14.80;99.90
2463;DHT22;1243;54.298;10.172;2023-07-22T06:47:11;14.80;99.90
2463;DHT22;1243;54.298;10.172;2023-07-22T06:49:37;14.80;99.90
2463;DHT22;1243;54.298;10.172;2023-07-22T06:52:03;14.70;99.90
2463;DHT22;1243;54.298;10.172;2023-07-22T06:54:29;14.60;99.90
2463;DHT22;1243;54.298;10.172;2023-07-22T06:56:55;14.50;99.90
2463;DHT22;1243;54.298;10.172;2023-07-22T06:59:20;14.50;99.90
2463;DHT22;1243;54.298;10.172;2023-07-22T07:01:46;14.50;99.90
2463;DHT22;1243;54.298;10.172;2023-07-22T07:04:12;14.50;99.90
2463;DHT22;1243;54.298;10.172;2023-07-22T07:06:37;14.60;99.90
2463;DHT22;1243;54.298;10.172;2023-07-22T07:09:06;14.40;99.90
2463;DHT22;1243;54.298;10.172;2023-07-22T07:11:32;14.30;99.90
2463;DHT22;1243;54.298;10.172;2023-07-22T07:13:58;14.30;99.90
2463;DHT22;1243;54.298;10.172;2023-07-22T07:16:28;14.30;99.90
2463;DHT22;1243;54.298;10.172;2023-07-22T07:18:54;14.40;99.90
2463;DHT22;1243;54.298;10.172;2023-07-22T07:21:21;14.50;99.90
2463;DHT22;1243;54.298;10.172;2023-07-22T07:23:48;14.50;99.90
2463;DHT22;1243;54.298;10.172;2023-07-22T07:26:14;14.60;99.90
2463;DHT22;1243;54.298;10.172;2023-07-22T07:28:40;14.70;99.90
2463;DHT22;1243;54.298;10.172;2023-07-22T07:31:06;14.70;99.90
2463;DHT22;1243;54.298;10.172;2023-07-22T07:33:33;14.80;99.90
2463;DHT22;1243;54.298;10.172;2023-07-22T07:35:59;14.90;99.90
2463;DHT22;1243;54.298;10.172;2023-07-22T07:38:25;15.00;99.90
2463;DHT22;1243;54.298;10.172;2023-07-22T07:41:07;15.00;99.90
2463;DHT22;1243;54.298;10.172;2023-07-22T07:43:37;15.10;99.90
2463;DHT22;1243;54.298;10.172;2023-07-22T07:46:23;15.30;99.90
2463;DHT22;1243;54.298;10.172;2023-07-22T07:48:50;15.40;99.90
2463;DHT22;1243;54.298;10.172;2023-07-22T07:51:18;15.40;99.90
2463;DHT22;1243;54.298;10.172;2023-07-22T07:53:45;15.60;99.90
2463;DHT22;1243;54.298;10.172;2023-07-22T07:56:15;15.60;94.10
2463;DHT22;1243;54.298;10.172;2023-07-22T07:58:42;15.60;46.10
2463;DHT22;1243;54.298;10.172;2023-07-22T08:01:08;15.50;1.00
2463;DHT22;1243;54.298;10.172;2023-07-22T08:03:35;15.70;5.00
2463;DHT22;1243;54.298;10.172;2023-07-22T08:06:02;15.90;11.90
2463;DHT22;1243;54.298;10.172;2023-07-22T08:08:28;16.00;3.00
2463;DHT22;1243;54.298;10.172;2023-07-22T08:11:01;16.10;7.40
2463;DHT22;1243;54.298;10.172;2023-07-22T08:13:27;16.20;1.00
2463;DHT22;1243;54.298;10.172;2023-07-22T08:15:55;16.40;1.00
2463;DHT22;1243;54.298;10.172;2023-07-22T08:18:20;16.30;1.00
2463;DHT22;1243;54.298;10.172;2023-07-22T08:20:46;16.30;1.00
2463;DHT22;1243;54.298;10.172;2023-07-22T08:23:13;16.20;1.00
2463;DHT22;1243;54.298;10.172;2023-07-22T08:25:39;16.20;1.00
2463;DHT22;1243;54.298;10.172;2023-07-22T08:28:04;16.40;1.00
2463;DHT22;1243;54.298;10.172;2023-07-22T08:30:30;16.50;1.00
2463;DHT22;1243;54.298;10.172;2023-07-22T08:32:56;16.50;1.00
2463;DHT22;1243;54.298;10.172;2023-07-22T08:35:22;16.50;1.00
2463;DHT22;1243;54.298;10.172;2023-07-22T08:37:48;16.50;1.00
2463;DHT22;1243;54.298;10.172;2023-07-22T08:40:14;16.50;1.00
2463;DHT22;1243;54.298;10.172;2023-07-22T08:42:41;16.70;1.00
2463;DHT22;1243;54.298;10.172;2023-07-22T08:45:09;16.80;1.00
2463;DHT22;1243;54.298;10.172;2023-07-22T08:47:36;16.90;1.00
2463;DHT22;1243;54.298;10.172;2023-07-22T08:50:06;17.00;1.00
2463;DHT22;1243;54.298;10.172;2023-07-22T08:52:33;17.00;1.00
2463;DHT22;1243;54.298;10.172;2023-07-22T08:55:00;17.00;1.00
2463;DHT22;1243;54.298;10.172;2023-07-22T08:57:28;17.20;1.00
2463;DHT22;1243;54.298;10.172;2023-07-22T08:59:56;17.30;1.00
2463;DHT22;1243;54.298;10.172;2023-07-22T09:02:24;17.50;1.00
2463;DHT22;1243;54.298;10.172;2023-07-22T09:04:53;17.60;1.00
2463;DHT22;1243;54.298;10.172;2023-07-22T09:07:18;17.80;1.00
2463;DHT22;1243;54.298;10.172;2023-07-22T09:09:46;17.70;1.00
2463;DHT22;1243;54.298;10.172;2023-07-22T09:12:14;17.70;1.00
2463;DHT22;1243;54.298;10.172;2023-07-22T09:14:40;17.70;99.90
2463;DHT22;1243;54.298;10.172;2023-07-22T09:17:06;17.70;99.90
2463;DHT22;1243;54.298;10.172;2023-07-22T09:19:32;17.60;99.90
2463;DHT22;1243;54.298;10.172;2023-07-22T09:21:58;17.70;99.90
2463;DHT22;1243;54.298;10.172;2023-07-22T09:24:26;17.50;99.90
2463;DHT22;1243;54.298;10.172;2023-07-22T09:26:53;17.60;99.90
2463;DHT22;1243;54.298;10.172;2023-07-22T09:29:35;17.90;99.90
2463;DHT22;1243;54.298;10.172;2023-07-22T09:32:01;18.10;99.90
2463;DHT22;1243;54.298;10.172;2023-07-22T09:34:28;18.40;99.90
2463;DHT22;1243;54.298;10.172;2023-07-22T09:36:58;18.80;99.90
2463;DHT22;1243;54.298;10.172;2023-07-22T09:39:26;18.90;99.90
2463;DHT22;1243;54.298;10.172;2023-07-22T09:41:52;19.00;99.90
2463;DHT22;1243;54.298;10.172;2023-07-22T09:44:21;19.10;99.90
2463;DHT22;1243;54.298;10.172;2023-07-22T09:46:48;19.20;99.90
2463;DHT22;1243;54.298;10.172;2023-07-22T09:49:17;19.20;99.90
2463;DHT22;1243;54.298;10.172;2023-07-22T09:51:43;19.10;99.90
2463;DHT22;1243;54.298;10.172;2023-07-22T09:54:09;19.10;99.90
2463;DHT22;1243;54.298;10.172;2023-07-22T09:56:46;19.10;99.90
2463;DHT22;1243;54.298;10.172;2023-07-22T09:59:13;19.10;99.90
2463;DHT22;1243;54.298;10.172;2023-07-22T10:01:39;18.90;99.90
2463;DHT22;1243;54.298;10.172;2023-07-22T10:04:06;18.60;99.90
2463;DHT22;1243;54.298;10.172;2023-07-22T10:06:33;18.20;99.90
2463;DHT22;1243;54.298;10.172;2023-07-22T10:09:03;18.00;99.90
2463;DHT22;1243;54.298;10.172;2023-07-22T10:11:34;17.90;99.90
2463;DHT22;1243;54.298;10.172;2023-07-22T10:14:02;17.80;99.90
2463;DHT22;1243;54.298;10.172;2023-07-22T10:16:28;17.60;99.90
2463;DHT22;1243;54.298;10.172;2023-07-22T10:18:54;17.50;99.90
2463;DHT22;1243;54.298;10.172;2023-07-22T10:21:21;17.50;99.90
2463;DHT22;1243;54.298;10.172;2023-07-22T10:23:48;17.90;1.00
2463;DHT22;1243;54.298;10.172;2023-07-22T10:26:17;18.40;1.00
2463;DHT22;1243;54.298;10.172;2023-07-22T10:28:45;18.70;1.00
2463;DHT22;1243;54.298;10.172;2023-07-22T10:31:11;18.70;1.00
2463;DHT22;1243;54.298;10.172;2023-07-22T10:33:38;18.40;99.90
2463;DHT22;1243;54.298;10.172;2023-07-22T10:36:14;17.90;99.90
2463;DHT22;1243;54.298;10.172;2023-07-22T10:38:40;17.20;1.00
2463;DHT22;1243;54.298;10.172;2023-07-22T10:41:16;16.90;1.00
2463;DHT22;1243;54.298;10.172;2023-07-22T10:43:53;16.70;1.00
2463;DHT22;1243;54.298;10.172;2023-07-22T10:46:34;16.60;1.00
2463;DHT22;1243;54.298;10.172;2023-07-22T10:49:15;16.90;1.00
2463;DHT22;1243;54.298;10.172;2023-07-22T10:51:47;17.80;1.00
2463;DHT22;1243;54.298;10.172;2023-07-22T10:54:14;18.80;1.00
2463;DHT22;1243;54.298;10.172;2023-07-22T10:56:44;19.60;1.00
2463;DHT22;1243;54.298;10.172;2023-07-22T10:59:11;19.90;1.00
2463;DHT22;1243;54.298;10.172;2023-07-22T11:01:39;20.10;1.00
2463;DHT22;1243;54.298;10.172;2023-07-22T11:12:04;20.90;1.00
2463;DHT22;1243;54.298;10.172;2023-07-22T11:14:32;21.40;1.00
2463;DHT22;1243;54.298;10.172;2023-07-22T11:16:59;21.70;1.00
2463;DHT22;1243;54.298;10.172;2023-07-22T11:19:26;21.60;99.90
2463;DHT22;1243;54.298;10.172;2023-07-22T11:21:53;21.00;99.90
2463;DHT22;1243;54.298;10.172;2023-07-22T11:24:20;20.60;99.90
2463;DHT22;1243;54.298;10.172;2023-07-22T11:26:46;20.20;99.90
2463;DHT22;1243;54.298;10.172;2023-07-22T11:29:13;19.90;99.90
2463;DHT22;1243;54.298;10.172;2023-07-22T11:31:44;19.50;99.90
2463;DHT22;1243;54.298;10.172;2023-07-22T11:34:22;19.20;99.90
2463;DHT22;1243;54.298;10.172;2023-07-22T11:36:50;18.80;99.90
2463;DHT22;1243;54.298;10.172;2023-07-22T11:39:18;18.50;99.90
2463;DHT22;1243;54.298;10.172;2023-07-22T11:41:45;18.30;99.90
2463;DHT22;1243;54.298;10.172;2023-07-22T11:44:17;17.90;99.90
2463;DHT22;1243;54.298;10.172;2023-07-22T11:46:53;17.40;99.90
2463;DHT22;1243;54.298;10.172;2023-07-22T11:49:39;17.10;99.90
2463;DHT22;1243;54.298;10.172;2023-07-22T11:52:15;16.80;99.90
2463;DHT22;1243;54.298;10.172;2023-07-22T11:54:43;16.60;99.90
2463;DHT22;1243;54.298;10.172;2023-07-22T11:57:20;16.60;1.00
2463;DHT22;1243;54.298;10.172;2023-07-22T11:59:54;16.50;1.00
2463;DHT22;1243;54.298;10.172;2023-07-22T12:02:27;16.30;1.00
2463;DHT22;1243;54.298;10.172;2023-07-22T12:05:01;16.10;1.00
2463;DHT22;1243;54.298;10.172;2023-07-22T12:07:28;15.80;1.00
2463;DHT22;1243;54.298;10.172;2023-07-22T12:09:56;15.70;1.00
2463;DHT22;1243;54.298;10.172;2023-07-22T12:12:39;15.70;1.00
2463;DHT22;1243;54.298;10.172;2023-07-22T12:15:13;15.70;1.00
2463;DHT22;1243;54.298;10.172;2023-07-22T12:17:54;15.80;1.00
2463;DHT22;1243;54.298;10.172;2023-07-22T12:20:28;15.90;1.00
2463;DHT22;1243;54.298;10.172;2023-07-22T12:22:55;16.00;1.00
2463;DHT22;1243;54.298;10.172;2023-07-22T12:25:20;16.10;1.00
2463;DHT22;1243;54.298;10.172;2023-07-22T12:27:46;16.20;1.00
2463;DHT22;1243;54.298;10.172;2023-07-22T12:30:12;16.30;1.00
2463;DHT22;1243;54.298;10.172;2023-07-22T12:32:38;16.50;1.00
2463;DHT22;1243;54.298;10.172;2023-07-22T12:35:05;16.60;1.00
2463;DHT22;1243;54.298;10.172;2023-07-22T12:37:31;16.60;1.00
2463;DHT22;1243;54.298;10.172;2023-07-22T12:39:57;16.70;1.00
2463;DHT22;1243;54.298;10.172;2023-07-22T12:42:22;16.80;1.00
2463;DHT22;1243;54.298;10.172;2023-07-22T12:44:48;16.80;1.00
2463;DHT22;1243;54.298;10.172;2023-07-22T12:47:14;16.90;1.00
2463;DHT22;1243;54.298;10.172;2023-07-22T12:49:39;17.10;1.00
2463;DHT22;1243;54.298;10.172;2023-07-22T12:52:06;17.30;1.00
2463;DHT22;1243;54.298;10.172;2023-07-22T12:54:37;17.40;1.00
2463;DHT22;1243;54.298;10.172;2023-07-22T12:57:04;17.50;1.00
2463;DHT22;1243;54.298;10.172;2023-07-22T12:59:30;17.60;1.00
2463;DHT22;1243;54.298;10.172;2023-07-22T13:01:56;17.70;1.00
2463;DHT22;1243;54.298;10.172;2023-07-22T13:04:23;17.90;1.00
2463;DHT22;1243;54.298;10.172;2023-07-22T13:06:50;18.00;1.00
2463;DHT22;1243;54.298;10.172;2023-07-22T13:09:17;18.10;1.00
2463;DHT22;1243;54.298;10.172;2023-07-22T13:11:43;18.00;1.00
2463;DHT22;1243;54.298;10.172;2023-07-22T13:14:09;18.00;1.00
2463;DHT22;1243;54.298;10.172;2023-07-22T13:16:34;18.20;1.00
2463;DHT22;1243;54.298;10.172;2023-07-22T13:19:00;18.30;1.00
2463;DHT22;1243;54.298;10.172;2023-07-22T13:21:29;18.40;1.00
2463;DHT22;1243;54.298;10.172;2023-07-22T13:23:54;18.40;1.00
2463;DHT22;1243;54.298;10.172;2023-07-22T13:26:20;18.50;1.00
2463;DHT22;1243;54.298;10.172;2023-07-22T13:28:46;18.50;1.00
2463;DHT22;1243;54.298;10.172;2023-07-22T13:31:12;18.50;1.00
2463;DHT22;1243;54.298;10.172;2023-07-22T13:33:37;18.40;1.00
2463;DHT22;1243;54.298;10.172;2023-07-22T13:36:03;18.10;1.00
2463;DHT22;1243;54.298;10.172;2023-07-22T13:38:29;18.00;1.00
2463;DHT22;1243;54.298;10.172;2023-07-22T13:40:55;18.10;1.00
2463;DHT22;1243;54.298;10.172;2023-07-22T13:43:21;18.00;1.00
2463;DHT22;1243;54.298;10.172;2023-07-22T13:45:46;17.90;1.00
2463;DHT22;1243;54.298;10.172;2023-07-22T13:48:12;17.80;1.00
2463;DHT22;1243;54.298;10.172;2023-07-22T13:50:38;17.70;1.00
2463;DHT22;1243;54.298;10.172;2023-07-22T13:53:04;17.50;1.00
2463;DHT22;1243;54.298;10.172;2023-07-22T13:55:29;17.50;1.00
2463;DHT22;1243;54.298;10.172;2023-07-22T13:57:55;17.40;1.00
2463;DHT22;1243;54.298;10.172;2023-07-22T14:00:21;17.30;1.00
2463;DHT22;1243;54.298;10.172;2023-07-22T14:02:47;17.30;1.00
2463;DHT22;1243;54.298;10.172;2023-07-22T14:05:13;17.20;1.00
2463;DHT22;1243;54.298;10.172;2023-07-22T14:07:39;17.20;1.00
2463;DHT22;1243;54.298;10.172;2023-07-22T14:10:05;17.20;1.00
2463;DHT22;1243;54.298;10.172;2023-07-22T14:12:31;17.10;1.00
2463;DHT22;1243;54.298;10.172;2023-07-22T14:14:57;17.10;1.00
2463;DHT22;1243;54.298;10.172;2023-07-22T14:17:22;17.00;1.00
2463;DHT22;1243;54.298;10.172;2023-07-22T14:19:48;16.90;1.00
2463;DHT22;1243;54.298;10.172;2023-07-22T14:22:14;16.80;1.00
2463;DHT22;1243;54.298;10.172;2023-07-22T14:24:40;16.60;1.00
2463;DHT22;1243;54.298;10.172;2023-07-22T14:27:06;16.60;1.00
2463;DHT22;1243;54.298;10.172;2023-07-22T14:29:32;16.60;1.00
2463;DHT22;1243;54.298;10.172;2023-07-22T14:31:57;16.60;1.00
2463;DHT22;1243;54.298;10.172;2023-07-22T14:34:23;16.60;1.00
2463;DHT22;1243;54.298;10.172;2023-07-22T14:36:49;16.60;1.00
2463;DHT22;1243;54.298;10.172;2023-07-22T14:39:18;16.60;1.00
2463;DHT22;1243;54.298;10.172;2023-07-22T14:41:43;16.60;1.00
2463;DHT22;1243;54.298;10.172;2023-07-22T14:44:10;16.60;1.00
2463;DHT22;1243;54.298;10.172;2023-07-22T14:46:36;16.60;1.00
2463;DHT22;1243;54.298;10.172;2023-07-22T14:49:02;16.50;1.00
2463;DHT22;1243;54.298;10.172;2023-07-22T14:51:28;16.50;1.00
2463;DHT22;1243;54.298;10.172;2023-07-22T14:53:53;16.50;1.00
2463;DHT22;1243;54.298;10.172;2023-07-22T14:56:19;16.40;1.00
2463;DHT22;1243;54.298;10.172;2023-07-22T14:58:45;16.40;1.00
2463;DHT22;1243;54.298;10.172;2023-07-22T15:01:11;16.40;1.00
2463;DHT22;1243;54.298;10.172;2023-07-22T15:03:38;16.40;1.00
2463;DHT22;1243;54.298;10.172;2023-07-22T15:06:06;16.30;1.00
2463;DHT22;1243;54.298;10.172;2023-07-22T15:08:32;16.20;1.00
2463;DHT22;1243;54.298;10.172;2023-07-22T15:10:58;16.10;1.00
2463;DHT22;1243;54.298;10.172;2023-07-22T15:13:24;16.10;1.00
2463;DHT22;1243;54.298;10.172;2023-07-22T15:15:53;16.20;1.00
2463;DHT22;1243;54.298;10.172;2023-07-22T15:18:19;16.10;1.00
2463;DHT22;1243;54.298;10.172;2023-07-22T15:20:45;16.10;1.00
2463;DHT22;1243;54.298;10.172;2023-07-22T15:23:10;16.20;1.00
2463;DHT22;1243;54.298;10.172;2023-07-22T15:25:36;16.30;1.00
2463;DHT22;1243;54.298;10.172;2023-07-22T15:28:02;16.30;1.00
2463;DHT22;1243;54.298;10.172;2023-07-22T15:30:28;16.30;1.00
2463;DHT22;1243;54.298;10.172;2023-07-22T15:32:54;16.30;1.00
2463;DHT22;1243;54.298;10.172;2023-07-22T15:35:19;16.20;1.00
2463;DHT22;1243;54.298;10.172;2023-07-22T15:37:45;16.20;1.00
2463;DHT22;1243;54.298;10.172;2023-07-22T15:40:11;16.20;1.00
2463;DHT22;1243;54.298;10.172;2023-07-22T15:42:37;16.20;1.00
2463;DHT22;1243;54.298;10.172;2023-07-22T15:45:03;16.10;1.00
2463;DHT22;1243;54.298;10.172;2023-07-22T15:47:28;16.20;1.00
2463;DHT22;1243;54.298;10.172;2023-07-22T15:49:54;16.10;1.00
2463;DHT22;1243;54.298;10.172;2023-07-22T15:52:20;16.10;1.00
2463;DHT22;1243;54.298;10.172;2023-07-22T15:54:46;16.00;1.00
2463;DHT22;1243;54.298;10.172;2023-07-22T15:57:11;15.90;1.00
2463;DHT22;1243;54.298;10.172;2023-07-22T15:59:37;15.90;1.00